sensor_id;sensor_type;location;lat;lon;timestamp;temperature;humidity
22813;DHT22;11573;51.334;3.244;2023-07-13T00:01:54;16.50;99.90
22813;DHT22;11573;51.334;3.244;2023-07-13T00:04:23;16.40;99.90
22813;DHT22;11573;51.334;3.244;2023-07-13T00:06:53;16.40;99.90
22813;DHT22;11573;51.334;3.244;2023-07-13T00:09:20;16.30;99.90
22813;DHT22;11573;51.334;3.244;2023-07-13T00:11:55;16.30;99.90
22813;DHT22;11573;51.334;3.244;2023-07-13T00:14:23;16.30;99.90
22813;DHT22;11573;51.334;3.244;2023-07-13T00:16:50;16.30;99.90
22813;DHT22;11573;51.334;3.244;2023-07-13T00:19:17;16.30;99.90
22813;DHT22;11573;51.334;3.244;2023-07-13T00:21:45;16.30;99.90
22813;DHT22;11573;51.334;3.244;2023-07-13T00:24:16;16.30;99.90
22813;DHT22;11573;51.334;3.244;2023-07-13T00:26:49;16.30;99.90
22813;DHT22;11573;51.334;3.244;2023-07-13T00:29:16;16.30;99.90
22813;DHT22;11573;51.334;3.244;2023-07-13T00:31:43;16.20;99.90
22813;DHT22;11573;51.334;3.244;2023-07-13T00:34:10;16.20;99.90
22813;DHT22;11573;51.334;3.244;2023-07-13T00:36:37;16.20;99.90
22813;DHT22;11573;51.334;3.244;2023-07-13T00:39:04;16.20;99.90
22813;DHT22;11573;51.334;3.244;2023-07-13T00:41:32;16.20;99.90
22813;DHT22;11573;51.334;3.244;2023-07-13T00:43:59;16.10;99.90
22813;DHT22;11573;51.334;3.244;2023-07-13T00:46:32;16.10;99.90
22813;DHT22;11573;51.334;3.244;2023-07-13T00:49:02;16.00;99.90
22813;DHT22;11573;51.334;3.244;2023-07-13T00:51:59;16.00;99.90
22813;DHT22;11573;51.334;3.244;2023-07-13T00:54:36;16.00;99.90
22813;DHT22;11573;51.334;3.244;2023-07-13T00:57:07;15.90;99.90
22813;DHT22;11573;51.334;3.244;2023-07-13T00:59:35;15.80;99.90
22813;DHT22;11573;51.334;3.244;2023-07-13T01:02:03;15.80;99.90
22813;DHT22;11573;51.334;3.244;2023-07-13T01:04:30;15.70;99.90
22813;DHT22;11573;51.334;3.244;2023-07-13T01:06:58;15.80;99.90
22813;DHT22;11573;51.334;3.244;2023-07-13T01:09:27;15.70;99.90
22813;DHT22;11573;51.334;3.244;2023-07-13T01:11:54;15.70;99.90
22813;DHT22;11573;51.334;3.244;2023-07-13T01:14:21;15.70;99.90
22813;DHT22;11573;51.334;3.244;2023-07-13T01:16:50;15.60;99.90
22813;DHT22;11573;51.334;3.244;2023-07-13T01:21:52;15.70;99.90
22813;DHT22;11573;51.334;3.244;2023-07-13T01:24:20;15.60;99.90
22813;DHT22;11573;51.334;3.244;2023-07-13T01:26:48;15.60;99.90
22813;DHT22;11573;51.334;3.244;2023-07-13T01:29:15;15.60;99.90
22813;DHT22;11573;51.334;3.244;2023-07-13T01:31:42;15.70;99.90
22813;DHT22;11573;51.334;3.244;2023-07-13T01:34:11;15.70;99.90
22813;DHT22;11573;51.334;3.244;2023-07-13T01:36:38;15.70;99.90
22813;DHT22;11573;51.334;3.244;2023-07-13T01:39:06;15.70;99.90
22813;DHT22;11573;51.334;3.244;2023-07-13T01:41:34;15.70;99.90
22813;DHT22;11573;51.334;3.244;2023-07-13T01:44:01;15.70;99.90
22813;DHT22;11573;51.334;3.244;2023-07-13T01:46:29;15.80;99.90
22813;DHT22;11573;51.334;3.244;2023-07-13T01:48:56;15.80;99.90
22813;DHT22;11573;51.334;3.244;2023-07-13T01:51:24;15.80;99.90
22813;DHT22;11573;51.334;3.244;2023-07-13T01:53:51;15.80;99.90
22813;DHT22;11573;51.334;3.244;2023-07-13T01:56:18;15.80;99.90
22813;DHT22;11573;51.334;3.244;2023-07-13T01:58:46;15.80;99.90
22813;DHT22;11573;51.334;3.244;2023-07-13T02:01:13;15.80;99.90
22813;DHT22;11573;51.334;3.244;2023-07-13T02:03:40;15.80;99.90
22813;DHT22;11573;51.334;3.244;2023-07-13T02:06:07;15.80;99.90
22813;DHT22;11573;51.334;3.244;2023-07-13T02:08:35;15.80;99.90
22813;DHT22;11573;51.334;3.244;2023-07-13T02:11:03;15.70;99.90
22813;DHT22;11573;51.334;3.244;2023-07-13T02:13:30;15.60;99.90
22813;DHT22;11573;51.334;3.244;2023-07-13T02:15:57;15.60;99.90
22813;DHT22;11573;51.334;3.244;2023-07-13T02:18:24;15.60;99.90
22813;DHT22;11573;51.334;3.244;2023-07-13T02:20:51;15.60;99.90
22813;DHT22;11573;51.334;3.244;2023-07-13T02:23:18;15.50;99.90
22813;DHT22;11573;51.334;3.244;2023-07-13T02:25:46;15.50;99.90
22813;DHT22;11573;51.334;3.244;2023-07-13T02:28:15;15.50;99.90
22813;DHT22;11573;51.334;3.244;2023-07-13T02:30:42;15.40;99.90
22813;DHT22;11573;51.334;3.244;2023-07-13T02:33:09;15.40;99.90
22813;DHT22;11573;51.334;3.244;2023-07-13T02:35:36;15.40;99.90
22813;DHT22;11573;51.334;3.244;2023-07-13T02:38:03;15.40;99.90
22813;DHT22;11573;51.334;3.244;2023-07-13T02:40:30;15.40;99.90
22813;DHT22;11573;51.334;3.244;2023-07-13T02:43:00;15.40;99.90
22813;DHT22;11573;51.334;3.244;2023-07-13T02:45:27;15.40;99.90
22813;DHT22;11573;51.334;3.244;2023-07-13T02:47:54;15.40;99.90
22813;DHT22;11573;51.334;3.244;2023-07-13T02:50:21;15.40;99.90
22813;DHT22;11573;51.334;3.244;2023-07-13T02:52:48;15.30;99.90
22813;DHT22;11573;51.334;3.244;2023-07-13T02:55:15;15.30;99.90
22813;DHT22;11573;51.334;3.244;2023-07-13T02:57:42;15.20;99.90
22813;DHT22;11573;51.334;3.244;2023-07-13T03:00:09;15.30;99.90
22813;DHT22;11573;51.334;3.244;2023-07-13T03:02:37;15.20;99.90
22813;DHT22;11573;51.334;3.244;2023-07-13T03:05:04;15.20;99.90
22813;DHT22;11573;51.334;3.244;2023-07-13T03:07:32;15.20;99.90
22813;DHT22;11573;51.334;3.244;2023-07-13T03:09:59;15.20;99.90
22813;DHT22;11573;51.334;3.244;2023-07-13T03:12:36;15.20;99.90
22813;DHT22;11573;51.334;3.244;2023-07-13T03:15:08;15.20;99.90
22813;DHT22;11573;51.334;3.244;2023-07-13T03:17:38;15.30;99.90
22813;DHT22;11573;51.334;3.244;2023-07-13T03:20:08;15.30;99.90
22813;DHT22;11573;51.334;3.244;2023-07-13T03:22:35;15.30;99.90
22813;DHT22;11573;51.334;3.244;2023-07-13T03:25:02;15.30;99.90
22813;DHT22;11573;51.334;3.244;2023-07-13T03:27:29;15.30;99.90
22813;DHT22;11573;51.334;3.244;2023-07-13T03:29:57;15.30;99.90
22813;DHT22;11573;51.334;3.244;2023-07-13T03:32:24;15.20;99.90
22813;DHT22;11573;51.334;3.244;2023-07-13T03:34:51;15.20;99.90
22813;DHT22;11573;51.334;3.244;2023-07-13T03:37:18;15.20;99.90
22813;DHT22;11573;51.334;3.244;2023-07-13T03:39:46;15.20;99.90
22813;DHT22;11573;51.334;3.244;2023-07-13T03:42:13;15.20;99.90
22813;DHT22;11573;51.334;3.244;2023-07-13T03:44:43;15.30;99.90
22813;DHT22;11573;51.334;3.244;2023-07-13T03:47:17;15.20;99.90
22813;DHT22;11573;51.334;3.244;2023-07-13T03:49:45;15.30;99.90
22813;DHT22;11573;51.334;3.244;2023-07-13T03:52:13;15.30;99.90
22813;DHT22;11573;51.334;3.244;2023-07-13T03:54:41;15.40;99.90
22813;DHT22;11573;51.334;3.244;2023-07-13T03:57:08;15.40;99.90
22813;DHT22;11573;51.334;3.244;2023-07-13T03:59:36;15.40;99.90
22813;DHT22;11573;51.334;3.244;2023-07-13T04:02:03;15.40;99.90
22813;DHT22;11573;51.334;3.244;2023-07-13T04:04:33;15.40;99.90
22813;DHT22;11573;51.334;3.244;2023-07-13T04:07:00;15.40;99.90
22813;DHT22;11573;51.334;3.244;2023-07-13T04:09:27;15.50;99.90
22813;DHT22;11573;51.334;3.244;2023-07-13T04:11:54;15.50;99.90
22813;DHT22;11573;51.334;3.244;2023-07-13T04:14:21;15.50;99.90
22813;DHT22;11573;51.334;3.244;2023-07-13T04:16:48;15.50;99.90
22813;DHT22;11573;51.334;3.244;2023-07-13T04:19:16;15.50;99.90
22813;DHT22;11573;51.334;3.244;2023-07-13T04:21:43;15.50;99.90
22813;DHT22;11573;51.334;3.244;2023-07-13T04:24:10;15.60;99.90
22813;DHT22;11573;51.334;3.244;2023-07-13T04:26:37;15.80;99.90
22813;DHT22;11573;51.334;3.244;2023-07-13T04:29:06;15.90;99.90
22813;DHT22;11573;51.334;3.244;2023-07-13T04:31:33;15.90;99.90
22813;DHT22;11573;51.334;3.244;2023-07-13T04:34:00;16.10;99.90
22813;DHT22;11573;51.334;3.244;2023-07-13T04:36:27;16.30;99.90
22813;DHT22;11573;51.334;3.244;2023-07-13T04:38:54;16.70;99.90
22813;DHT22;11573;51.334;3.244;2023-07-13T04:41:22;17.20;99.90
22813;DHT22;11573;51.334;3.244;2023-07-13T04:43:49;17.60;99.90
22813;DHT22;11573;51.334;3.244;2023-07-13T04:46:16;18.10;99.90
22813;DHT22;11573;51.334;3.244;2023-07-13T04:48:49;18.60;99.90
22813;DHT22;11573;51.334;3.244;2023-07-13T04:51:17;18.70;99.90
22813;DHT22;11573;51.334;3.244;2023-07-13T04:53:44;19.00;99.90
22813;DHT22;11573;51.334;3.244;2023-07-13T04:56:12;19.10;99.90
22813;DHT22;11573;51.334;3.244;2023-07-13T04:58:39;19.30;99.90
22813;DHT22;11573;51.334;3.244;2023-07-13T05:01:07;19.60;99.90
22813;DHT22;11573;51.334;3.244;2023-07-13T05:03:36;19.80;99.90
22813;DHT22;11573;51.334;3.244;2023-07-13T05:06:06;19.30;99.90
22813;DHT22;11573;51.334;3.244;2023-07-13T05:08:33;19.10;99.90
22813;DHT22;11573;51.334;3.244;2023-07-13T05:11:01;18.90;99.90
22813;DHT22;11573;51.334;3.244;2023-07-13T05:13:29;18.80;99.90
22813;DHT22;11573;51.334;3.244;2023-07-13T05:16:04;18.90;99.90
22813;DHT22;11573;51.334;3.244;2023-07-13T05:18:33;19.10;99.90
22813;DHT22;11573;51.334;3.244;2023-07-13T05:21:06;19.80;95.90
22813;DHT22;11573;51.334;3.244;2023-07-13T05:23:35;20.20;50.30
22813;DHT22;11573;51.334;3.244;2023-07-13T05:26:03;21.10;26.80
22813;DHT22;11573;51.334;3.244;2023-07-13T05:28:35;22.20;4.00
22813;DHT22;11573;51.334;3.244;2023-07-13T05:31:03;21.70;1.00
22813;DHT22;11573;51.334;3.244;2023-07-13T05:33:30;20.40;8.10
22813;DHT22;11573;51.334;3.244;2023-07-13T05:35:57;20.00;40.60
22813;DHT22;11573;51.334;3.244;2023-07-13T05:38:24;19.70;42.40
22813;DHT22;11573;51.334;3.244;2023-07-13T05:40:53;19.20;78.30
22813;DHT22;11573;51.334;3.244;2023-07-13T05:43:19;19.00;93.70
22813;DHT22;11573;51.334;3.244;2023-07-13T05:45:46;18.60;99.90
22813;DHT22;11573;51.334;3.244;2023-07-13T05:48:14;18.30;99.90
22813;DHT22;11573;51.334;3.244;2023-07-13T05:50:41;18.10;99.90
22813;DHT22;11573;51.334;3.244;2023-07-13T05:53:08;18.00;99.90
22813;DHT22;11573;51.334;3.244;2023-07-13T05:55:35;17.90;99.90
22813;DHT22;11573;51.334;3.244;2023-07-13T05:58:02;18.00;99.90
22813;DHT22;11573;51.334;3.244;2023-07-13T06:00:29;17.90;99.90
22813;DHT22;11573;51.334;3.244;2023-07-13T06:02:56;17.90;99.90
22813;DHT22;11573;51.334;3.244;2023-07-13T06:05:25;18.00;99.90
22813;DHT22;11573;51.334;3.244;2023-07-13T06:07:52;18.20;99.90
22813;DHT22;11573;51.334;3.244;2023-07-13T06:10:19;18.40;99.90
22813;DHT22;11573;51.334;3.244;2023-07-13T06:12:46;18.40;99.90
22813;DHT22;11573;51.334;3.244;2023-07-13T06:15:13;18.50;99.90
22813;DHT22;11573;51.334;3.244;2023-07-13T06:17:43;18.70;99.90
22813;DHT22;11573;51.334;3.244;2023-07-13T06:20:10;18.70;99.90
22813;DHT22;11573;51.334;3.244;2023-07-13T06:22:37;19.00;99.90
22813;DHT22;11573;51.334;3.244;2023-07-13T06:25:05;19.30;99.90
22813;DHT22;11573;51.334;3.244;2023-07-13T06:27:32;19.50;99.90
22813;DHT22;11573;51.334;3.244;2023-07-13T06:29:59;19.40;99.90
22813;DHT22;11573;51.334;3.244;2023-07-13T06:32:26;19.30;99.90
22813;DHT22;11573;51.334;3.244;2023-07-13T06:34:53;19.30;99.90
22813;DHT22;11573;51.334;3.244;2023-07-13T06:37:20;19.40;99.90
22813;DHT22;11573;51.334;3.244;2023-07-13T06:39:47;19.60;99.90
22813;DHT22;11573;51.334;3.244;2023-07-13T06:42:15;19.80;99.90
22813;DHT22;11573;51.334;3.244;2023-07-13T06:44:42;20.10;99.90
22813;DHT22;11573;51.334;3.244;2023-07-13T06:47:09;20.20;97.60
22813;DHT22;11573;51.334;3.244;2023-07-13T06:49:36;20.40;92.60
22813;DHT22;11573;51.334;3.244;2023-07-13T06:52:03;20.20;90.90
22813;DHT22;11573;51.334;3.244;2023-07-13T06:54:30;20.00;95.90
22813;DHT22;11573;51.334;3.244;2023-07-13T06:56:57;19.90;91.60
22813;DHT22;11573;51.334;3.244;2023-07-13T06:59:24;20.00;93.70
22813;DHT22;11573;51.334;3.244;2023-07-13T07:01:52;20.30;91.10
22813;DHT22;11573;51.334;3.244;2023-07-13T07:04:18;20.40;87.00
22813;DHT22;11573;51.334;3.244;2023-07-13T07:06:45;20.70;88.20
22813;DHT22;11573;51.334;3.244;2023-07-13T07:09:12;21.20;69.50
22813;DHT22;11573;51.334;3.244;2023-07-13T07:11:40;21.20;54.60
22813;DHT22;11573;51.334;3.244;2023-07-13T07:14:27;21.10;45.50
22813;DHT22;11573;51.334;3.244;2023-07-13T07:16:54;20.80;43.20
22813;DHT22;11573;51.334;3.244;2023-07-13T07:19:21;20.80;44.00
22813;DHT22;11573;51.334;3.244;2023-07-13T07:21:48;20.60;52.50
22813;DHT22;11573;51.334;3.244;2023-07-13T07:24:15;20.50;51.00
22813;DHT22;11573;51.334;3.244;2023-07-13T07:26:42;20.50;49.40
22813;DHT22;11573;51.334;3.244;2023-07-13T07:29:12;20.50;49.80
22813;DHT22;11573;51.334;3.244;2023-07-13T07:31:42;20.50;37.30
22813;DHT22;11573;51.334;3.244;2023-07-13T07:34:12;20.20;27.30
22813;DHT22;11573;51.334;3.244;2023-07-13T07:36:39;19.90;37.60
22813;DHT22;11573;51.334;3.244;2023-07-13T07:39:09;19.90;44.60
22813;DHT22;11573;51.334;3.244;2023-07-13T07:41:36;20.10;36.90
22813;DHT22;11573;51.334;3.244;2023-07-13T07:44:05;20.20;31.10
22813;DHT22;11573;51.334;3.244;2023-07-13T07:46:34;20.30;30.90
22813;DHT22;11573;51.334;3.244;2023-07-13T07:49:01;20.40;29.10
22813;DHT22;11573;51.334;3.244;2023-07-13T07:51:28;20.60;24.30
22813;DHT22;11573;51.334;3.244;2023-07-13T07:53:55;20.20;19.00
22813;DHT22;11573;51.334;3.244;2023-07-13T07:56:22;19.90;23.70
22813;DHT22;11573;51.334;3.244;2023-07-13T07:58:52;19.90;28.80
22813;DHT22;11573;51.334;3.244;2023-07-13T08:01:22;20.00;27.70
22813;DHT22;11573;51.334;3.244;2023-07-13T08:03:52;20.20;18.30
22813;DHT22;11573;51.334;3.244;2023-07-13T08:06:22;20.20;14.70
22813;DHT22;11573;51.334;3.244;2023-07-13T08:08:52;20.30;11.50
22813;DHT22;11573;51.334;3.244;2023-07-13T08:11:21;20.60;11.90
22813;DHT22;11573;51.334;3.244;2023-07-13T08:13:51;20.70;4.70
22813;DHT22;11573;51.334;3.244;2023-07-13T08:16:22;20.90;6.80
22813;DHT22;11573;51.334;3.244;2023-07-13T08:18:49;21.10;6.60
22813;DHT22;11573;51.334;3.244;2023-07-13T08:21:16;21.00;1.00
22813;DHT22;11573;51.334;3.244;2023-07-13T08:23:46;21.10;1.00
22813;DHT22;11573;51.334;3.244;2023-07-13T08:26:13;21.20;1.00
22813;DHT22;11573;51.334;3.244;2023-07-13T08:28:41;21.40;1.00
22813;DHT22;11573;51.334;3.244;2023-07-13T08:31:09;21.30;1.00
22813;DHT22;11573;51.334;3.244;2023-07-13T08:33:37;21.40;1.00
22813;DHT22;11573;51.334;3.244;2023-07-13T08:36:05;21.60;1.00
22813;DHT22;11573;51.334;3.244;2023-07-13T08:38:33;21.50;1.00
22813;DHT22;11573;51.334;3.244;2023-07-13T08:41:09;21.20;1.00
22813;DHT22;11573;51.334;3.244;2023-07-13T08:43:38;21.10;1.00
22813;DHT22;11573;51.334;3.244;2023-07-13T08:46:26;21.20;1.00
22813;DHT22;11573;51.334;3.244;2023-07-13T08:49:03;21.20;1.00
22813;DHT22;11573;51.334;3.244;2023-07-13T08:54:09;21.10;1.00
22813;DHT22;11573;51.334;3.244;2023-07-13T08:56:37;21.00;1.00
22813;DHT22;11573;51.334;3.244;2023-07-13T08:59:11;21.20;1.00
22813;DHT22;11573;51.334;3.244;2023-07-13T09:01:54;21.10;1.00
22813;DHT22;11573;51.334;3.244;2023-07-13T09:04:50;21.00;3.30
22813;DHT22;11573;51.334;3.244;2023-07-13T09:10:32;21.00;1.00
22813;DHT22;11573;51.334;3.244;2023-07-13T09:13:18;21.20;1.00
22813;DHT22;11573;51.334;3.244;2023-07-13T09:15:48;21.30;1.00
22813;DHT22;11573;51.334;3.244;2023-07-13T09:18:26;21.40;1.20
22813;DHT22;11573;51.334;3.244;2023-07-13T09:21:03;21.50;1.00
22813;DHT22;11573;51.334;3.244;2023-07-13T09:23:30;21.30;1.00
22813;DHT22;11573;51.334;3.244;2023-07-13T09:28:49;21.30;1.00
22813;DHT22;11573;51.334;3.244;2023-07-13T09:31:38;21.20;1.00
22813;DHT22;11573;51.334;3.244;2023-07-13T09:34:10;21.60;1.00
22813;DHT22;11573;51.334;3.244;2023-07-13T09:36:37;21.50;1.00
22813;DHT22;11573;51.334;3.244;2023-07-13T09:39:15;21.50;1.00
22813;DHT22;11573;51.334;3.244;2023-07-13T09:44:36;21.80;1.00
22813;DHT22;11573;51.334;3.244;2023-07-13T09:47:15;21.80;1.00
22813;DHT22;11573;51.334;3.244;2023-07-13T09:49:43;21.80;1.00
22813;DHT22;11573;51.334;3.244;2023-07-13T09:52:15;22.00;1.00
22813;DHT22;11573;51.334;3.244;2023-07-13T09:54:48;21.90;1.00
22813;DHT22;11573;51.334;3.244;2023-07-13T09:57:18;22.10;1.00
22813;DHT22;11573;51.334;3.244;2023-07-13T09:59:49;22.00;1.00
22813;DHT22;11573;51.334;3.244;2023-07-13T10:05:01;21.90;8.30
22813;DHT22;11573;51.334;3.244;2023-07-13T10:07:31;21.90;1.00
22813;DHT22;11573;51.334;3.244;2023-07-13T10:10:00;21.80;8.30
22813;DHT22;11573;51.334;3.244;2023-07-13T10:12:30;22.30;1.00
22813;DHT22;11573;51.334;3.244;2023-07-13T10:15:03;22.70;1.00
22813;DHT22;11573;51.334;3.244;2023-07-13T10:17:50;23.30;1.00
22813;DHT22;11573;51.334;3.244;2023-07-13T10:20:18;22.90;1.00
22813;DHT22;11573;51.334;3.244;2023-07-13T10:23:04;22.80;1.00
22813;DHT22;11573;51.334;3.244;2023-07-13T10:25:36;22.90;1.00
22813;DHT22;11573;51.334;3.244;2023-07-13T10:30:53;23.30;1.00
22813;DHT22;11573;51.334;3.244;2023-07-13T10:33:21;23.10;1.00
22813;DHT22;11573;51.334;3.244;2023-07-13T10:35:52;22.70;1.00
22813;DHT22;11573;51.334;3.244;2023-07-13T10:38:22;22.80;1.00
22813;DHT22;11573;51.334;3.244;2023-07-13T10:40:57;22.80;1.00
22813;DHT22;11573;51.334;3.244;2023-07-13T10:43:34;23.00;1.00
22813;DHT22;11573;51.334;3.244;2023-07-13T10:46:06;23.10;1.00
22813;DHT22;11573;51.334;3.244;2023-07-13T10:48:35;23.30;1.00
22813;DHT22;11573;51.334;3.244;2023-07-13T10:51:05;23.00;99.90
22813;DHT22;11573;51.334;3.244;2023-07-13T10:53:35;22.70;1.00
22813;DHT22;11573;51.334;3.244;2023-07-13T10:56:04;22.40;1.00
22813;DHT22;11573;51.334;3.244;2023-07-13T10:58:36;22.40;1.00
22813;DHT22;11573;51.334;3.244;2023-07-13T11:03:36;23.00;1.00
22813;DHT22;11573;51.334;3.244;2023-07-13T11:06:11;23.20;1.00
22813;DHT22;11573;51.334;3.244;2023-07-13T11:11:37;23.00;1.00
22813;DHT22;11573;51.334;3.244;2023-07-13T11:16:56;23.10;1.00
22813;DHT22;11573;51.334;3.244;2023-07-13T11:19:27;22.60;1.00
22813;DHT22;11573;51.334;3.244;2023-07-13T11:30:25;22.40;1.00
22813;DHT22;11573;51.334;3.244;2023-07-13T11:38:40;22.40;1.00
22813;DHT22;11573;51.334;3.244;2023-07-13T11:41:35;22.40;1.00
22813;DHT22;11573;51.334;3.244;2023-07-13T11:44:13;22.70;1.00
22813;DHT22;11573;51.334;3.244;2023-07-13T11:46:49;23.00;1.00
22813;DHT22;11573;51.334;3.244;2023-07-13T11:49:23;22.90;1.00
22813;DHT22;11573;51.334;3.244;2023-07-13T11:51:52;22.90;1.00
22813;DHT22;11573;51.334;3.244;2023-07-13T11:54:31;22.90;1.00
22813;DHT22;11573;51.334;3.244;2023-07-13T11:57:20;22.80;1.00
22813;DHT22;11573;51.334;3.244;2023-07-13T11:59:51;22.70;1.00
22813;DHT22;11573;51.334;3.244;2023-07-13T12:02:32;22.40;1.00
22813;DHT22;11573;51.334;3.244;2023-07-13T12:05:01;22.50;1.00
22813;DHT22;11573;51.334;3.244;2023-07-13T12:07:32;22.80;1.00
22813;DHT22;11573;51.334;3.244;2023-07-13T12:10:03;23.00;1.00
22813;DHT22;11573;51.334;3.244;2023-07-13T12:12:48;23.00;1.00
22813;DHT22;11573;51.334;3.244;2023-07-13T12:15:15;23.10;1.00
22813;DHT22;11573;51.334;3.244;2023-07-13T12:17:42;23.30;1.00
22813;DHT22;11573;51.334;3.244;2023-07-13T12:22:47;23.30;1.00
22813;DHT22;11573;51.334;3.244;2023-07-13T12:25:15;23.20;1.00
22813;DHT22;11573;51.334;3.244;2023-07-13T12:27:46;23.10;1.00
22813;DHT22;11573;51.334;3.244;2023-07-13T12:30:31;23.20;1.00
22813;DHT22;11573;51.334;3.244;2023-07-13T12:33:12;23.00;1.00
22813;DHT22;11573;51.334;3.244;2023-07-13T12:35:48;23.30;1.00
22813;DHT22;11573;51.334;3.244;2023-07-13T12:38:17;23.30;1.00
22813;DHT22;11573;51.334;3.244;2023-07-13T12:40:44;23.50;1.00
22813;DHT22;11573;51.334;3.244;2023-07-13T12:43:14;23.70;1.00
22813;DHT22;11573;51.334;3.244;2023-07-13T12:46:01;23.80;1.00
22813;DHT22;11573;51.334;3.244;2023-07-13T12:48:29;23.80;1.00
22813;DHT22;11573;51.334;3.244;2023-07-13T12:51:13;23.70;99.90
22813;DHT22;11573;51.334;3.244;2023-07-13T12:53:48;23.80;99.90
22813;DHT22;11573;51.334;3.244;2023-07-13T12:56:22;23.80;99.90
22813;DHT22;11573;51.334;3.244;2023-07-13T12:58:51;23.80;99.90
22813;DHT22;11573;51.334;3.244;2023-07-13T13:01:22;23.90;99.90
22813;DHT22;11573;51.334;3.244;2023-07-13T13:03:53;23.90;99.90
22813;DHT22;11573;51.334;3.244;2023-07-13T13:06:26;23.90;99.90
22813;DHT22;11573;51.334;3.244;2023-07-13T13:08:56;23.80;99.90
22813;DHT22;11573;51.334;3.244;2023-07-13T13:11:26;23.40;1.00
22813;DHT22;11573;51.334;3.244;2023-07-13T13:13:54;23.10;1.00
22813;DHT22;11573;51.334;3.244;2023-07-13T13:16:23;23.20;1.00
22813;DHT22;11573;51.334;3.244;2023-07-13T13:18:53;23.30;1.00
22813;DHT22;11573;51.334;3.244;2023-07-13T13:21:21;23.50;1.00
22813;DHT22;11573;51.334;3.244;2023-07-13T13:23:48;23.20;1.00
22813;DHT22;11573;51.334;3.244;2023-07-13T13:26:16;23.30;1.00
22813;DHT22;11573;51.334;3.244;2023-07-13T13:28:44;23.00;1.00
22813;DHT22;11573;51.334;3.244;2023-07-13T13:31:12;23.10;1.00
22813;DHT22;11573;51.334;3.244;2023-07-13T13:33:44;23.40;1.00
22813;DHT22;11573;51.334;3.244;2023-07-13T13:36:20;23.60;1.00
22813;DHT22;11573;51.334;3.244;2023-07-13T13:38:50;23.70;1.00
22813;DHT22;11573;51.334;3.244;2023-07-13T13:41:18;23.10;1.00
22813;DHT22;11573;51.334;3.244;2023-07-13T13:43:44;23.30;1.00
22813;DHT22;11573;51.334;3.244;2023-07-13T13:46:16;23.30;1.00
22813;DHT22;11573;51.334;3.244;2023-07-13T13:48:44;23.30;1.00
22813;DHT22;11573;51.334;3.244;2023-07-13T13:51:15;23.30;1.00
22813;DHT22;11573;51.334;3.244;2023-07-13T13:53:43;23.60;1.00
22813;DHT22;11573;51.334;3.244;2023-07-13T13:56:10;23.80;1.00
22813;DHT22;11573;51.334;3.244;2023-07-13T13:58:38;23.90;1.00
22813;DHT22;11573;51.334;3.244;2023-07-13T14:01:05;23.50;1.00
22813;DHT22;11573;51.334;3.244;2023-07-13T14:03:35;23.80;1.00
22813;DHT22;11573;51.334;3.244;2023-07-13T14:06:02;23.80;1.00
22813;DHT22;11573;51.334;3.244;2023-07-13T14:08:29;23.50;1.00
22813;DHT22;11573;51.334;3.244;2023-07-13T14:10:57;23.60;1.00
22813;DHT22;11573;51.334;3.244;2023-07-13T14:13:32;23.60;1.00
22813;DHT22;11573;51.334;3.244;2023-07-13T14:16:02;23.70;1.00
22813;DHT22;11573;51.334;3.244;2023-07-13T14:18:31;23.80;1.00
22813;DHT22;11573;51.334;3.244;2023-07-13T14:20:58;23.70;1.00
22813;DHT22;11573;51.334;3.244;2023-07-13T14:23:26;23.60;1.00
22813;DHT22;11573;51.334;3.244;2023-07-13T14:25:53;23.40;1.00
22813;DHT22;11573;51.334;3.244;2023-07-13T14:28:25;23.50;1.00
22813;DHT22;11573;51.334;3.244;2023-07-13T14:30:53;23.40;1.00
22813;DHT22;11573;51.334;3.244;2023-07-13T14:33:23;23.20;1.00
22813;DHT22;11573;51.334;3.244;2023-07-13T14:35:51;23.30;1.00
22813;DHT22;11573;51.334;3.244;2023-07-13T14:38:20;23.30;1.00
22813;DHT22;11573;51.334;3.244;2023-07-13T14:40:47;23.50;1.00
22813;DHT22;11573;51.334;3.244;2023-07-13T14:43:16;23.40;1.00
22813;DHT22;11573;51.334;3.244;2023-07-13T14:45:50;23.20;1.00
22813;DHT22;11573;51.334;3.244;2023-07-13T14:48:20;23.10;1.00
22813;DHT22;11573;51.334;3.244;2023-07-13T14:50:54;23.00;1.00
22813;DHT22;11573;51.334;3.244;2023-07-13T14:53:22;23.10;1.00
22813;DHT22;11573;51.334;3.244;2023-07-13T14:55:50;23.50;1.00
22813;DHT22;11573;51.334;3.244;2023-07-13T14:58:17;23.50;1.00
22813;DHT22;11573;51.334;3.244;2023-07-13T15:00:45;23.50;1.00
22813;DHT22;11573;51.334;3.244;2023-07-13T15:03:20;23.30;1.00
22813;DHT22;11573;51.334;3.244;2023-07-13T15:05:51;23.40;1.00
22813;DHT22;11573;51.334;3.244;2023-07-13T15:08:19;23.50;1.00
22813;DHT22;11573;51.334;3.244;2023-07-13T15:10:46;23.60;1.00
22813;DHT22;11573;51.334;3.244;2023-07-13T15:13:21;24.10;99.90
22813;DHT22;11573;51.334;3.244;2023-07-13T15:15:53;24.20;99.90
22813;DHT22;11573;51.334;3.244;2023-07-13T15:18:22;24.20;99.90
22813;DHT22;11573;51.334;3.244;2023-07-13T15:20:51;24.20;99.90
22813;DHT22;11573;51.334;3.244;2023-07-13T15:23:22;24.30;99.90
22813;DHT22;11573;51.334;3.244;2023-07-13T15:25:49;24.30;99.90
22813;DHT22;11573;51.334;3.244;2023-07-13T15:28:16;24.70;99.90
22813;DHT22;11573;51.334;3.244;2023-07-13T15:30:45;24.50;99.90
22813;DHT22;11573;51.334;3.244;2023-07-13T15:33:17;24.30;99.90
22813;DHT22;11573;51.334;3.244;2023-07-13T15:35:46;24.50;99.90
22813;DHT22;11573;51.334;3.244;2023-07-13T15:38:24;24.70;99.90
22813;DHT22;11573;51.334;3.244;2023-07-13T15:40:52;24.80;1.00
22813;DHT22;11573;51.334;3.244;2023-07-13T15:43:19;24.90;99.90
22813;DHT22;11573;51.334;3.244;2023-07-13T15:45:47;24.90;99.90
22813;DHT22;11573;51.334;3.244;2023-07-13T15:48:20;24.60;99.90
22813;DHT22;11573;51.334;3.244;2023-07-13T15:50:52;24.40;99.90
22813;DHT22;11573;51.334;3.244;2023-07-13T15:53:23;23.90;1.00
22813;DHT22;11573;51.334;3.244;2023-07-13T15:55:51;23.60;99.90
22813;DHT22;11573;51.334;3.244;2023-07-13T15:58:18;23.00;99.90
22813;DHT22;11573;51.334;3.244;2023-07-13T16:00:48;23.00;1.00
22813;DHT22;11573;51.334;3.244;2023-07-13T16:03:19;22.90;1.00
22813;DHT22;11573;51.334;3.244;2023-07-13T16:05:47;22.80;1.00
22813;DHT22;11573;51.334;3.244;2023-07-13T16:08:25;23.00;1.00
22813;DHT22;11573;51.334;3.244;2023-07-13T16:10:54;23.50;1.00
22813;DHT22;11573;51.334;3.244;2023-07-13T16:13:21;23.60;99.90
22813;DHT22;11573;51.334;3.244;2023-07-13T16:15:50;23.30;99.90
22813;DHT22;11573;51.334;3.244;2023-07-13T16:18:17;23.50;99.90
22813;DHT22;11573;51.334;3.244;2023-07-13T16:20:46;23.50;99.90
22813;DHT22;11573;51.334;3.244;2023-07-13T16:23:16;23.60;99.90
22813;DHT22;11573;51.334;3.244;2023-07-13T16:25:44;24.20;99.90
22813;DHT22;11573;51.334;3.244;2023-07-13T16:28:12;24.50;99.90
22813;DHT22;11573;51.334;3.244;2023-07-13T16:30:41;24.40;99.90
22813;DHT22;11573;51.334;3.244;2023-07-13T16:33:08;24.00;99.90
22813;DHT22;11573;51.334;3.244;2023-07-13T16:35:38;24.00;99.90
22813;DHT22;11573;51.334;3.244;2023-07-13T16:38:19;24.20;99.90